createdAt,value
2022-11-24T00:01:08.970Z,19.33
2022-11-24T00:03:36.162Z,20.48
2022-11-24T00:06:10.800Z,16.58
2022-11-24T00:08:38.637Z,20.35
2022-11-24T00:11:08.333Z,19.27
2022-11-24T00:13:35.632Z,20.58
2022-11-24T00:16:11.010Z,19.15
2022-11-24T00:18:39.468Z,18.05
2022-11-24T00:21:06.971Z,17.65
2022-11-24T00:23:34.174Z,17.65
2022-11-24T00:26:12.207Z,20.17
2022-11-24T00:28:39.695Z,16.95
2022-11-24T00:31:17.222Z,17.23
2022-11-24T00:33:45.239Z,15.23
2022-11-24T00:36:11.968Z,15.60
2022-11-24T00:38:38.936Z,14.27
2022-11-24T00:41:06.615Z,16.60
2022-11-24T00:43:33.581Z,17.33
2022-11-24T00:46:00.390Z,15.07
2022-11-24T00:48:27.756Z,16.58
2022-11-24T00:51:24.769Z,17.63
2022-11-24T00:53:51.541Z,16.80
2022-11-24T00:56:18.545Z,16.52
2022-11-24T00:58:45.445Z,15.80
2022-11-24T01:01:15.256Z,20.83
2022-11-24T01:03:42.856Z,17.55
2022-11-24T01:06:15.837Z,16.45
2022-11-24T01:08:43.350Z,16.45
2022-11-24T01:11:19.073Z,17.17
2022-11-24T01:13:47.916Z,18.65
2022-11-24T01:16:17.245Z,20.65
2022-11-24T01:18:44.486Z,17.33
2022-11-24T01:21:11.231Z,22.83
2022-11-24T01:23:38.226Z,16.77
2022-11-24T01:26:09.838Z,18.10
2022-11-24T01:28:40.557Z,16.17
2022-11-24T01:33:37.944Z,16.73
2022-11-24T01:36:05.466Z,19.35
2022-11-24T01:38:32.801Z,14.48
2022-11-24T01:41:06.025Z,16.23
2022-11-24T01:43:34.937Z,17.58
2022-11-24T01:46:24.034Z,14.40
2022-11-24T01:49:11.684Z,16.25
2022-11-24T01:52:06.857Z,14.40
2022-11-24T01:54:38.003Z,13.43
2022-11-24T01:57:22.839Z,14.45
2022-11-24T01:59:54.958Z,13.85
2022-11-24T02:02:22.542Z,13.13
2022-11-24T02:04:50.635Z,12.57
2022-11-24T02:07:18.435Z,13.27
2022-11-24T02:10:02.319Z,14.82
2022-11-24T02:12:29.753Z,14.75
2022-11-24T02:14:58.190Z,14.75
2022-11-24T02:17:25.054Z,14.32
2022-11-24T02:19:58.006Z,15.85
2022-11-24T02:22:30.706Z,15.25
2022-11-24T02:25:25.643Z,14.98
2022-11-24T02:27:54.478Z,14.98
2022-11-24T02:30:21.569Z,13.05
2022-11-24T02:32:48.382Z,12.20
2022-11-24T02:35:15.179Z,13.48
2022-11-24T02:37:41.935Z,13.48
2022-11-24T02:40:09.386Z,13.85
2022-11-24T02:42:44.336Z,14.98
2022-11-24T02:45:12.496Z,14.73
2022-11-24T02:47:39.223Z,16.08
2022-11-24T02:50:06.473Z,13.10
2022-11-24T02:52:33.277Z,15.45
2022-11-24T02:55:00.206Z,17.02
2022-11-24T02:57:27.325Z,14.38
2022-11-24T02:59:54.108Z,19.67
2022-11-24T03:02:21.112Z,13.40
2022-11-24T03:04:47.986Z,14.93
2022-11-24T03:07:14.875Z,16.27
2022-11-24T03:09:41.683Z,14.93
2022-11-24T03:12:08.534Z,14.90
2022-11-24T03:14:35.653Z,19.55
2022-11-24T03:17:04.144Z,13.88
2022-11-24T03:19:31.018Z,16.80
2022-11-24T03:21:57.784Z,13.07
2022-11-24T03:24:24.531Z,15.85
2022-11-24T03:26:51.385Z,16.25
2022-11-24T03:29:18.203Z,17.92
2022-11-24T03:31:45.252Z,13.65
2022-11-24T03:34:13.913Z,16.85
2022-11-24T03:36:40.772Z,15.75
2022-11-24T03:39:08.179Z,13.45
2022-11-24T03:41:34.933Z,14.70
2022-11-24T03:44:01.742Z,16.42
2022-11-24T03:46:28.730Z,12.88
2022-11-24T03:48:55.473Z,12.45
2022-11-24T03:51:23.504Z,16.80
2022-11-24T03:53:50.346Z,15.73
2022-11-24T03:56:17.139Z,15.88
2022-11-24T03:58:43.896Z,14.95
2022-11-24T04:01:10.711Z,13.98
2022-11-24T04:03:37.435Z,17.50
2022-11-24T04:06:04.189Z,18.05
2022-11-24T04:08:30.929Z,14.57
2022-11-24T04:10:57.749Z,14.45
2022-11-24T04:13:25.778Z,17.55
2022-11-24T04:15:54.329Z,16.27
2022-11-24T04:18:21.436Z,16.58
2022-11-24T04:20:52.290Z,14.45
2022-11-24T04:23:19.577Z,15.68
2022-11-24T04:25:46.437Z,16.33
2022-11-24T04:28:13.192Z,17.65
2022-11-24T04:30:44.406Z,14.55
2022-11-24T04:33:11.537Z,17.77
2022-11-24T04:35:38.262Z,17.25
2022-11-24T04:38:05.017Z,20.63
2022-11-24T04:40:31.858Z,15.90
2022-11-24T04:42:58.573Z,20.73
2022-11-24T04:45:25.383Z,12.60
2022-11-24T04:47:52.191Z,16.30
2022-11-24T04:50:19.016Z,18.17
2022-11-24T04:52:45.903Z,14.57
2022-11-24T04:55:13.018Z,14.82
2022-11-24T04:57:39.788Z,18.58
2022-11-24T05:00:07.450Z,19.85
2022-11-24T05:02:34.397Z,17.38
2022-11-24T05:05:01.230Z,20.35
2022-11-24T05:07:28.289Z,15.90
2022-11-24T05:10:13.954Z,13.73
2022-11-24T05:12:40.691Z,20.83
2022-11-24T05:15:08.496Z,17.65
2022-11-24T05:17:37.590Z,17.45
2022-11-24T05:20:07.066Z,13.35
2022-11-24T05:22:34.300Z,14.93
2022-11-24T05:25:01.698Z,19.88
2022-11-24T05:27:29.252Z,12.30
2022-11-24T05:29:56.297Z,16.48
2022-11-24T05:32:23.621Z,14.68
2022-11-24T05:34:50.549Z,20.00
2022-11-24T05:37:17.769Z,14.85
2022-11-24T05:39:44.522Z,18.83
2022-11-24T05:42:30.168Z,12.85
2022-11-24T05:44:57.506Z,15.18
2022-11-24T05:47:24.424Z,16.70
2022-11-24T05:49:51.966Z,12.68
2022-11-24T05:52:18.823Z,17.08
2022-11-24T05:54:45.616Z,16.88
2022-11-24T05:57:13.130Z,16.40
2022-11-24T05:59:39.977Z,16.67
2022-11-24T06:02:06.877Z,17.13
2022-11-24T06:04:33.961Z,15.05
2022-11-24T06:07:00.970Z,17.08
2022-11-24T06:09:27.729Z,18.33
2022-11-24T06:11:54.759Z,14.85
2022-11-24T06:14:21.888Z,14.63
2022-11-24T06:16:48.686Z,14.02
2022-11-24T06:19:15.553Z,15.00
2022-11-24T06:21:42.363Z,22.52
2022-11-24T06:24:09.141Z,12.15
2022-11-24T06:26:35.952Z,16.13
2022-11-24T06:29:02.957Z,14.70
2022-11-24T06:31:29.806Z,12.57
2022-11-24T06:33:56.627Z,11.35
2022-11-24T06:36:23.472Z,16.25
2022-11-24T06:38:50.273Z,17.55
2022-11-24T06:41:18.190Z,12.45
2022-11-24T06:43:45.736Z,18.42
2022-11-24T06:46:13.162Z,26.98
2022-11-24T06:48:40.089Z,23.85
2022-11-24T06:51:10.531Z,13.88
2022-11-24T06:53:38.493Z,15.05
2022-11-24T06:56:12.172Z,11.18
2022-11-24T06:58:48.218Z,18.83
2022-11-24T07:01:20.187Z,16.40
2022-11-24T07:03:48.662Z,13.25
2022-11-24T07:06:16.287Z,15.57
2022-11-24T07:08:43.526Z,18.75
2022-11-24T07:11:15.504Z,19.98
2022-11-24T07:13:44.959Z,15.38
2022-11-24T07:16:21.023Z,13.27
2022-11-24T07:18:51.133Z,15.32
2022-11-24T07:21:19.538Z,16.15
2022-11-24T07:23:50.687Z,11.00
2022-11-24T07:26:18.138Z,16.88
2022-11-24T07:28:45.432Z,11.63
2022-11-24T07:31:14.907Z,16.00
2022-11-24T07:33:41.899Z,12.73
2022-11-24T07:36:09.579Z,8.77
2022-11-24T07:38:36.317Z,13.13
2022-11-24T07:41:08.295Z,14.52
2022-11-24T07:43:36.308Z,11.15
2022-11-24T07:46:04.539Z,9.57
2022-11-24T07:48:32.095Z,16.30
2022-11-24T07:51:03.191Z,12.27
2022-11-24T07:53:31.357Z,13.63
2022-11-24T07:56:00.738Z,10.75
2022-11-24T07:58:32.582Z,14.93
2022-11-24T08:01:00.424Z,11.38
2022-11-24T08:03:27.545Z,8.82
2022-11-24T08:08:46.470Z,6.97
2022-11-24T08:11:16.278Z,7.75
2022-11-24T08:13:43.630Z,12.77
2022-11-24T08:16:13.572Z,13.80
2022-11-24T08:18:40.892Z,11.45
2022-11-24T08:21:11.920Z,10.55
2022-11-24T08:23:38.890Z,8.45
2022-11-24T08:26:08.860Z,8.02
2022-11-24T08:28:36.635Z,10.23
2022-11-24T08:31:08.822Z,10.68
2022-11-24T08:33:36.148Z,10.43
2022-11-24T08:36:07.572Z,11.48
2022-11-24T08:38:34.423Z,13.10
2022-11-24T08:41:06.622Z,9.05
2022-11-24T08:43:33.575Z,12.10
2022-11-24T08:46:02.587Z,17.88
2022-11-24T08:48:30.018Z,9.93
2022-11-24T08:50:58.063Z,12.57
2022-11-24T08:53:25.392Z,8.52
2022-11-24T08:55:52.297Z,11.05
2022-11-24T08:58:19.114Z,10.10
2022-11-24T09:00:45.874Z,9.57
2022-11-24T09:03:12.656Z,9.48
2022-11-24T09:05:54.718Z,5.65
2022-11-24T09:08:21.475Z,8.73
2022-11-24T09:10:48.391Z,6.13
2022-11-24T09:13:15.110Z,6.40
2022-11-24T09:15:41.887Z,7.68
2022-11-24T09:18:08.653Z,13.68
2022-11-24T09:20:35.411Z,10.77
2022-11-24T09:23:02.379Z,9.68
2022-11-24T09:25:29.368Z,7.18
2022-11-24T09:27:57.148Z,8.73
2022-11-24T09:30:26.282Z,9.50
2022-11-24T09:32:56.215Z,10.93
2022-11-24T09:35:23.288Z,7.32
2022-11-24T09:37:51.171Z,7.20
2022-11-24T09:40:21.035Z,8.52
2022-11-24T09:43:07.500Z,10.32
2022-11-24T09:46:08.584Z,6.60
2022-11-24T09:51:14.057Z,7.85
2022-11-24T09:53:46.397Z,9.27
2022-11-24T09:56:22.943Z,9.68
2022-11-24T09:58:58.685Z,8.10
2022-11-24T10:01:28.501Z,8.68
2022-11-24T10:04:12.504Z,10.05
2022-11-24T10:06:47.786Z,8.77
2022-11-24T10:09:56.697Z,9.35
2022-11-24T10:12:40.576Z,6.70
2022-11-24T10:16:08.366Z,7.53
2022-11-24T10:18:56.764Z,10.75
2022-11-24T10:22:04.480Z,9.55
2022-11-24T10:25:04.333Z,5.60
2022-11-24T10:27:46.592Z,11.90
2022-11-24T10:30:25.533Z,6.03
2022-11-24T10:33:19.107Z,7.97
2022-11-24T10:35:52.343Z,9.70
2022-11-24T10:38:54.134Z,9.35
2022-11-24T10:41:37.662Z,5.97
2022-11-24T10:44:04.658Z,9.57
2022-11-24T10:46:39.188Z,9.50
2022-11-24T10:49:06.710Z,10.00
2022-11-24T10:51:51.351Z,9.48
2022-11-24T10:54:21.765Z,7.30
2022-11-24T10:56:52.787Z,16.90
2022-11-24T10:59:31.300Z,9.05
2022-11-24T11:02:00.631Z,11.00
2022-11-24T11:04:29.000Z,8.40
2022-11-24T11:07:16.848Z,11.10
2022-11-24T11:09:44.257Z,8.23
2022-11-24T11:12:45.744Z,9.77
2022-11-24T11:15:24.230Z,6.35
2022-11-24T11:17:54.433Z,8.60
2022-11-24T11:20:31.310Z,7.63
2022-11-24T11:23:00.953Z,6.03
2022-11-24T11:25:33.895Z,6.38
2022-11-24T11:28:26.519Z,7.55
2022-11-24T11:31:22.416Z,4.50
2022-11-24T11:34:03.667Z,4.35
2022-11-24T11:36:33.167Z,5.35
2022-11-24T11:39:00.593Z,5.57
2022-11-24T11:41:36.984Z,7.10
2022-11-24T11:44:34.056Z,5.28
2022-11-24T11:47:09.192Z,5.57
2022-11-24T11:49:38.404Z,5.18
2022-11-24T11:52:31.824Z,7.93
2022-11-24T11:55:35.027Z,4.10
2022-11-24T11:58:41.393Z,4.25
2022-11-24T12:01:41.456Z,3.75
2022-11-24T12:04:26.696Z,4.80
2022-11-24T12:07:18.550Z,4.65
2022-11-24T12:09:57.283Z,3.50
2022-11-24T12:12:45.640Z,4.50
2022-11-24T12:15:17.467Z,5.07
2022-11-24T12:17:54.704Z,8.68
2022-11-24T12:20:50.055Z,4.28
2022-11-24T12:23:16.819Z,6.65
2022-11-24T12:25:57.541Z,3.95
2022-11-24T12:28:43.603Z,2.55
2022-11-24T12:31:51.608Z,3.20
2022-11-24T12:34:27.916Z,7.07
2022-11-24T12:37:03.646Z,3.17
2022-11-24T12:40:00.914Z,4.45
2022-11-24T12:42:54.824Z,3.45
2022-11-24T12:45:34.147Z,2.15
2022-11-24T12:48:12.933Z,2.05
2022-11-24T12:50:41.874Z,5.38
2022-11-24T12:53:20.485Z,1.90
2022-11-24T12:55:47.865Z,4.75
2022-11-24T12:58:20.070Z,3.65
2022-11-24T13:01:16.167Z,2.17
2022-11-24T13:03:52.379Z,3.00
2022-11-24T13:06:28.305Z,2.97
2022-11-24T13:08:55.512Z,1.92
2022-11-24T13:11:22.197Z,4.35
2022-11-24T13:14:13.669Z,4.47
2022-11-24T13:19:48.310Z,3.60
2022-11-24T13:22:33.069Z,6.85
2022-11-24T13:25:22.249Z,3.63
2022-11-24T13:27:53.026Z,4.30
2022-11-24T13:30:34.928Z,3.67
2022-11-24T13:33:16.754Z,3.78
2022-11-24T13:36:09.673Z,7.32
2022-11-24T13:38:45.576Z,4.82
2022-11-24T13:41:37.020Z,4.30
2022-11-24T13:44:16.020Z,8.15
2022-11-24T13:47:01.776Z,4.32
2022-11-24T13:49:39.056Z,4.88
2022-11-24T13:54:52.721Z,5.70
2022-11-24T13:57:37.694Z,3.15
2022-11-24T14:00:05.482Z,5.32
2022-11-24T14:02:34.585Z,4.80
2022-11-24T14:05:01.532Z,5.43
2022-11-24T14:07:30.410Z,4.18
2022-11-24T14:09:58.129Z,5.50
2022-11-24T14:12:26.718Z,5.95
2022-11-24T14:15:14.233Z,4.13
2022-11-24T14:17:41.112Z,5.55
2022-11-24T14:20:22.779Z,7.00
2022-11-24T14:22:50.280Z,6.38
2022-11-24T14:25:30.956Z,4.68
2022-11-24T14:27:59.172Z,5.13
2022-11-24T14:30:26.507Z,4.97
2022-11-24T14:33:03.855Z,7.75
2022-11-24T14:35:32.996Z,6.20
2022-11-24T14:38:05.487Z,6.63
2022-11-24T14:40:51.573Z,6.87
2022-11-24T14:43:30.204Z,7.63
2022-11-24T14:46:09.890Z,10.98
2022-11-24T14:48:46.983Z,5.13
2022-11-24T14:51:30.460Z,4.82
2022-11-24T14:54:04.489Z,5.88
2022-11-24T14:56:36.694Z,8.00
2022-11-24T14:59:04.950Z,8.93
2022-11-24T15:01:34.622Z,7.88
2022-11-24T15:04:54.439Z,6.93
2022-11-24T15:07:12.088Z,7.32
2022-11-24T15:09:47.749Z,7.50
2022-11-24T15:12:38.558Z,8.70
2022-11-24T15:15:14.507Z,7.57
2022-11-24T15:17:53.062Z,7.85
2022-11-24T15:20:28.367Z,7.32
2022-11-24T15:23:23.218Z,9.88
2022-11-24T15:25:57.576Z,10.93
2022-11-24T15:28:27.745Z,6.28
2022-11-24T15:31:10.451Z,6.63
2022-11-24T15:33:37.730Z,9.20
2022-11-24T15:36:04.771Z,7.05
2022-11-24T15:38:31.809Z,9.23
2022-11-24T15:41:00.710Z,7.22
2022-11-24T15:43:31.468Z,6.47
2022-11-24T15:45:59.436Z,7.65
2022-11-24T15:48:27.005Z,5.90
2022-11-24T15:50:55.940Z,7.90
2022-11-24T15:53:34.483Z,8.10
2022-11-24T15:56:03.871Z,4.47
2022-11-24T15:58:30.695Z,8.40
2022-11-24T16:00:58.783Z,8.38
2022-11-24T16:06:22.034Z,9.27
2022-11-24T16:08:51.416Z,6.43
2022-11-24T16:11:18.234Z,6.30
2022-11-24T16:13:51.545Z,7.00
2022-11-24T16:16:19.942Z,7.45
2022-11-24T16:18:46.759Z,6.22
2022-11-24T16:21:13.526Z,8.27
2022-11-24T16:23:40.404Z,11.98
2022-11-24T16:26:07.603Z,6.40
2022-11-24T16:28:34.616Z,5.53
2022-11-24T16:31:01.583Z,5.70
2022-11-24T16:33:29.861Z,7.35
2022-11-24T16:35:56.800Z,7.47
2022-11-24T16:38:23.836Z,10.77
2022-11-24T16:41:22.920Z,9.63
2022-11-24T16:43:50.399Z,6.63
2022-11-24T16:46:22.827Z,2.92
2022-11-24T16:48:51.733Z,6.25
2022-11-24T16:51:20.920Z,8.43
2022-11-24T16:53:48.649Z,7.30
2022-11-24T16:56:16.458Z,6.22
2022-11-24T16:58:43.372Z,8.00
2022-11-24T17:01:12.635Z,7.05
2022-11-24T17:03:41.089Z,6.15
2022-11-24T17:06:11.178Z,7.68
2022-11-24T17:08:39.532Z,6.35
2022-11-24T17:11:17.548Z,4.63
2022-11-24T17:13:45.844Z,9.57
2022-11-24T17:16:18.890Z,5.75
2022-11-24T17:18:46.184Z,4.65
2022-11-24T17:21:21.313Z,6.00
2022-11-24T17:23:52.707Z,8.07
2022-11-24T17:26:19.437Z,5.18
2022-11-24T17:28:46.363Z,9.23
2022-11-24T17:31:22.272Z,6.68
2022-11-24T17:33:50.064Z,6.95
2022-11-24T17:36:17.179Z,6.78
2022-11-24T17:38:43.957Z,8.00
2022-11-24T17:41:11.313Z,7.32
2022-11-24T17:43:38.294Z,8.90
2022-11-24T17:46:05.719Z,8.45
2022-11-24T17:48:33.104Z,5.32
2022-11-24T17:51:09.476Z,8.65
2022-11-24T17:53:37.302Z,5.55
2022-11-24T17:56:04.222Z,5.93
2022-11-24T17:58:32.607Z,4.63
2022-11-24T18:00:59.719Z,5.82
2022-11-24T18:03:31.575Z,5.47
2022-11-24T18:06:08.479Z,6.55
2022-11-24T18:08:36.456Z,3.90
2022-11-24T18:11:08.727Z,7.55
2022-11-24T18:13:55.833Z,8.77
2022-11-24T18:16:24.133Z,6.25
2022-11-24T18:19:07.292Z,5.90
2022-11-24T18:21:35.020Z,5.70
2022-11-24T18:24:02.068Z,7.00
2022-11-24T18:26:28.900Z,7.32
2022-11-24T18:28:55.716Z,6.10
2022-11-24T18:31:22.532Z,6.55
2022-11-24T18:33:49.603Z,6.00
2022-11-24T18:36:18.712Z,8.68
2022-11-24T18:38:45.648Z,3.90
2022-11-24T18:41:14.715Z,5.93
2022-11-24T18:43:41.701Z,5.00
2022-11-24T18:46:16.962Z,5.18
2022-11-24T18:48:44.878Z,13.50
2022-11-24T18:51:14.550Z,11.55
2022-11-24T18:53:42.974Z,11.98
2022-11-24T18:56:17.232Z,15.93
2022-11-24T18:58:45.112Z,6.22
2022-11-24T19:01:17.512Z,6.93
2022-11-24T19:03:49.069Z,10.32
2022-11-24T19:06:28.555Z,4.38
2022-11-24T19:08:55.448Z,8.55
2022-11-24T19:11:25.339Z,7.47
2022-11-24T19:13:52.365Z,7.88
2022-11-24T19:16:20.632Z,7.03
2022-11-24T19:18:53.734Z,9.23
2022-11-24T19:21:22.352Z,14.70
2022-11-24T19:23:49.988Z,12.23
2022-11-24T19:26:17.977Z,11.32
2022-11-24T19:28:45.121Z,8.23
2022-11-24T19:31:14.411Z,8.75
2022-11-24T19:33:42.525Z,8.65
2022-11-24T19:36:19.993Z,10.60
2022-11-24T19:38:55.081Z,7.95
2022-11-24T19:41:25.018Z,9.88
2022-11-24T19:43:55.101Z,9.05
2022-11-24T19:46:22.968Z,8.25
2022-11-24T19:48:51.048Z,9.93
2022-11-24T19:51:20.393Z,7.68
2022-11-24T19:53:47.619Z,11.10
2022-11-24T19:56:19.667Z,6.28
2022-11-24T19:58:47.287Z,8.38
2022-11-24T20:01:16.831Z,6.53
2022-11-24T20:03:44.680Z,8.93
2022-11-24T20:06:13.353Z,10.10
2022-11-24T20:08:41.157Z,8.57
2022-11-24T20:11:10.942Z,10.90
2022-11-24T20:13:39.505Z,9.57
2022-11-24T20:16:15.361Z,7.25
2022-11-24T20:18:45.279Z,7.55
2022-11-24T20:21:18.980Z,8.48
2022-11-24T20:23:53.413Z,6.47
2022-11-24T20:26:22.934Z,10.45
2022-11-24T20:28:51.235Z,7.00
2022-11-24T20:31:20.526Z,10.48
2022-11-24T20:33:48.004Z,14.48
2022-11-24T20:36:17.225Z,10.10
2022-11-24T20:38:45.380Z,12.30
2022-11-24T20:41:17.374Z,12.02
2022-11-24T20:43:45.449Z,13.63
2022-11-24T20:46:24.488Z,10.85
2022-11-24T20:48:51.694Z,8.15
2022-11-24T20:51:21.611Z,7.13
2022-11-24T20:53:53.529Z,7.57
2022-11-24T20:56:23.177Z,8.00
2022-11-24T20:58:50.445Z,14.27
2022-11-24T21:01:26.715Z,10.48
2022-11-24T21:03:59.042Z,9.80
2022-11-24T21:06:27.896Z,12.25
2022-11-24T21:09:00.457Z,11.10
2022-11-24T21:11:30.588Z,7.70
2022-11-24T21:13:57.560Z,7.63
2022-11-24T21:16:29.119Z,7.35
2022-11-24T21:19:01.248Z,7.25
2022-11-24T21:21:34.477Z,7.00
2022-11-24T21:24:06.804Z,12.10
2022-11-24T21:26:38.065Z,9.15
2022-11-24T21:29:05.623Z,11.90
2022-11-24T21:31:36.672Z,12.43
2022-11-24T21:34:05.043Z,11.45
2022-11-24T21:36:35.539Z,10.60
2022-11-24T21:39:03.888Z,9.32
2022-11-24T21:41:33.079Z,9.95
2022-11-24T21:43:59.937Z,8.00
2022-11-24T21:46:37.756Z,9.57
2022-11-24T21:49:07.565Z,6.85
2022-11-24T21:51:34.391Z,8.27
2022-11-24T21:54:01.195Z,7.32
2022-11-24T21:56:27.974Z,9.75
2022-11-24T21:58:57.351Z,8.25
2022-11-24T22:01:27.329Z,13.32
2022-11-24T22:03:54.661Z,9.60
2022-11-24T22:06:21.817Z,11.25
2022-11-24T22:08:50.155Z,14.63
2022-11-24T22:11:19.953Z,9.52
2022-11-24T22:13:47.215Z,10.82
2022-11-24T22:16:16.891Z,20.60
2022-11-24T22:18:45.301Z,15.55
2022-11-24T22:21:14.881Z,16.30
2022-11-24T22:23:42.098Z,11.00
2022-11-24T22:26:13.343Z,11.07
2022-11-24T22:28:40.461Z,16.08
2022-11-24T22:31:10.445Z,12.25
2022-11-24T22:33:37.234Z,10.40
2022-11-24T22:36:04.616Z,11.88
2022-11-24T22:38:32.388Z,10.52
2022-11-24T22:41:11.500Z,12.48
2022-11-24T22:43:39.698Z,15.23
2022-11-24T22:46:11.405Z,14.90
2022-11-24T22:48:39.203Z,10.88
2022-11-24T22:51:07.280Z,8.65
2022-11-24T22:53:34.310Z,7.53
2022-11-24T22:56:02.875Z,9.32
2022-11-24T22:58:30.927Z,11.52
2022-11-24T23:01:20.331Z,10.52
2022-11-24T23:03:48.844Z,9.10
2022-11-24T23:06:21.397Z,8.55
2022-11-24T23:08:49.340Z,11.82
2022-11-24T23:11:27.389Z,8.38
2022-11-24T23:14:00.460Z,8.93
2022-11-24T23:16:28.987Z,17.30
2022-11-24T23:18:56.719Z,8.70
2022-11-24T23:21:26.989Z,8.45
2022-11-24T23:23:54.857Z,5.63
2022-11-24T23:26:28.043Z,7.97
2022-11-24T23:29:01.550Z,44.40
2022-11-24T23:31:29.170Z,62.92
2022-11-24T23:34:01.139Z,12.98
2022-11-24T23:36:29.317Z,10.43
2022-11-24T23:39:00.774Z,11.38
2022-11-24T23:41:30.054Z,11.13
2022-11-24T23:43:57.705Z,9.02
2022-11-24T23:46:26.823Z,6.95
2022-11-24T23:48:55.173Z,7.45
2022-11-24T23:51:27.269Z,14.05
2022-11-24T23:53:55.235Z,12.30
2022-11-24T23:56:25.558Z,5.82
2022-11-24T23:58:52.885Z,6.32
